createdAt,value
2023-03-03T00:00:59.938Z,101603.22
2023-03-03T00:03:27.860Z,101604.66
2023-03-03T00:05:54.624Z,101609.00
2023-03-03T00:08:21.139Z,101604.22
2023-03-03T00:10:48.095Z,101609.78
2023-03-03T00:13:14.725Z,101620.94
2023-03-03T00:15:42.219Z,101621.97
2023-03-03T00:18:09.456Z,101622.16
2023-03-03T00:20:36.043Z,101627.09
2023-03-03T00:23:03.551Z,101637.41
2023-03-03T00:25:30.623Z,101640.09
2023-03-03T00:27:58.070Z,101640.47
2023-03-03T00:30:25.493Z,101646.03
2023-03-03T00:32:52.106Z,101649.97
2023-03-03T00:35:19.512Z,101639.66
2023-03-03T00:37:46.948Z,101643.56
2023-03-03T00:40:14.489Z,101651.59
2023-03-03T00:42:42.237Z,101651.56
2023-03-03T00:45:11.006Z,101656.47
2023-03-03T00:47:38.149Z,101652.38
2023-03-03T00:50:05.922Z,101661.03
2023-03-03T00:52:33.406Z,101659.16
2023-03-03T00:55:01.038Z,101652.94
2023-03-03T00:57:28.737Z,101661.38
2023-03-03T00:59:56.076Z,101660.53
2023-03-03T01:02:23.037Z,101655.38
2023-03-03T01:04:49.378Z,101647.75
2023-03-03T01:07:16.037Z,101640.69
2023-03-03T01:09:42.422Z,101634.53
2023-03-03T01:12:09.377Z,101637.59
2023-03-03T01:14:35.752Z,101632.41
2023-03-03T01:17:02.301Z,101627.47
2023-03-03T01:19:28.936Z,101621.06
2023-03-03T01:21:55.383Z,101618.16
2023-03-03T01:24:22.211Z,101602.06
2023-03-03T01:26:48.624Z,101601.00
2023-03-03T01:29:14.939Z,101593.13
2023-03-03T01:31:41.629Z,101594.38
2023-03-03T01:34:08.066Z,101599.09
2023-03-03T01:36:34.604Z,101606.69
2023-03-03T01:39:01.396Z,101603.38
2023-03-03T01:41:27.976Z,101600.22
2023-03-03T01:43:54.518Z,101601.25
2023-03-03T01:46:20.942Z,101597.97
2023-03-03T01:48:47.843Z,101602.28
2023-03-03T01:51:14.213Z,101607.41
2023-03-03T01:53:40.725Z,101606.38
2023-03-03T01:56:07.378Z,101596.69
2023-03-03T01:58:33.731Z,101601.22
2023-03-03T02:01:00.158Z,101591.72
2023-03-03T02:03:27.609Z,101599.94
2023-03-03T02:05:54.037Z,101596.84
2023-03-03T02:08:21.288Z,101593.13
2023-03-03T02:10:48.124Z,101590.03
2023-03-03T02:13:14.837Z,101588.94
2023-03-03T02:15:41.148Z,101589.75
2023-03-03T02:18:07.840Z,101589.97
2023-03-03T02:20:34.208Z,101590.16
2023-03-03T02:23:00.659Z,101583.78
2023-03-03T02:25:27.149Z,101578.78
2023-03-03T02:27:54.090Z,101584.56
2023-03-03T02:30:20.441Z,101578.38
2023-03-03T02:32:46.926Z,101581.88
2023-03-03T02:35:13.387Z,101585.75
2023-03-03T02:37:39.861Z,101590.31
2023-03-03T02:40:06.263Z,101590.69
2023-03-03T02:42:33.039Z,101597.44
2023-03-03T02:44:59.407Z,101604.66
2023-03-03T02:47:25.776Z,101606.88
2023-03-03T02:49:52.143Z,101607.91
2023-03-03T02:52:18.581Z,101609.56
2023-03-03T02:54:45.440Z,101610.41
2023-03-03T02:57:11.965Z,101609.13
2023-03-03T02:59:38.437Z,101618.19
2023-03-03T03:02:04.793Z,101621.06
2023-03-03T03:04:31.191Z,101608.69
2023-03-03T03:06:57.896Z,101607.03
2023-03-03T03:09:24.466Z,101618.56
2023-03-03T03:11:51.050Z,101628.63
2023-03-03T03:14:17.458Z,101625.34
2023-03-03T03:16:43.932Z,101619.78
2023-03-03T03:19:10.428Z,101616.03
2023-03-03T03:21:37.121Z,101606.16
2023-03-03T03:24:03.565Z,101609.19
2023-03-03T03:26:29.906Z,101609.81
2023-03-03T03:28:56.447Z,101610.22
2023-03-03T03:31:22.768Z,101617.44
2023-03-03T03:33:49.170Z,101614.31
2023-03-03T03:36:16.925Z,101611.22
2023-03-03T03:38:43.543Z,101618.63
2023-03-03T03:41:10.271Z,101617.19
2023-03-03T03:43:36.741Z,101621.69
2023-03-03T03:46:03.449Z,101618.00
2023-03-03T03:48:29.971Z,101616.09
2023-03-03T03:50:56.414Z,101620.03
2023-03-03T03:53:22.745Z,101617.94
2023-03-03T03:55:49.370Z,101627.38
2023-03-03T03:58:15.788Z,101627.16
2023-03-03T04:00:42.311Z,101627.38
2023-03-03T04:03:09.291Z,101622.22
2023-03-03T04:05:36.133Z,101628.56
2023-03-03T04:08:02.596Z,101626.47
2023-03-03T04:10:29.538Z,101627.75
2023-03-03T04:12:56.314Z,101617.22
2023-03-03T04:15:22.740Z,101612.91
2023-03-03T04:17:49.094Z,101612.25
2023-03-03T04:20:15.534Z,101607.06
2023-03-03T04:22:42.018Z,101608.94
2023-03-03T04:25:09.297Z,101610.97
2023-03-03T04:27:35.740Z,101618.00
2023-03-03T04:30:02.594Z,101614.03
2023-03-03T04:32:29.059Z,101600.84
2023-03-03T04:35:05.596Z,101600.00
2023-03-03T04:37:33.968Z,101600.00
2023-03-03T04:40:00.518Z,101596.50
2023-03-03T04:42:27.347Z,101598.72
2023-03-03T04:44:54.025Z,101590.69
2023-03-03T04:47:20.409Z,101589.88
2023-03-03T04:49:46.695Z,101584.72
2023-03-03T04:52:13.043Z,101584.72
2023-03-03T04:54:39.683Z,101584.06
2023-03-03T04:57:06.144Z,101578.06
2023-03-03T04:59:32.517Z,101584.47
2023-03-03T05:01:58.914Z,101582.78
2023-03-03T05:04:26.037Z,101592.66
2023-03-03T05:06:52.670Z,101592.47
2023-03-03T05:09:19.049Z,101598.16
2023-03-03T05:11:45.739Z,101599.19
2023-03-03T05:14:12.112Z,101604.06
2023-03-03T05:16:38.492Z,101603.72
2023-03-03T05:19:04.833Z,101601.41
2023-03-03T05:21:31.195Z,101608.81
2023-03-03T05:23:57.944Z,101608.16
2023-03-03T05:26:24.327Z,101609.81
2023-03-03T05:28:50.968Z,101602.16
2023-03-03T05:31:17.729Z,101591.28
2023-03-03T05:33:44.190Z,101605.03
2023-03-03T05:36:10.575Z,101594.31
2023-03-03T05:38:37.017Z,101588.97
2023-03-03T05:41:03.648Z,101595.53
2023-03-03T05:43:30.080Z,101590.53
2023-03-03T05:45:56.399Z,101584.38
2023-03-03T05:48:23.192Z,101595.09
2023-03-03T05:50:49.607Z,101593.88
2023-03-03T05:53:16.011Z,101608.66
2023-03-03T05:55:42.691Z,101606.78
2023-03-03T05:58:09.521Z,101607.19
2023-03-03T06:00:35.979Z,101602.63
2023-03-03T06:03:02.446Z,101598.13
2023-03-03T06:05:28.836Z,101603.47
2023-03-03T06:07:55.170Z,101595.63
2023-03-03T06:10:21.527Z,101599.53
2023-03-03T06:12:47.947Z,101610.22
2023-03-03T06:15:14.279Z,101613.91
2023-03-03T06:17:40.715Z,101613.06
2023-03-03T06:20:07.084Z,101612.44
2023-03-03T06:22:33.501Z,101607.09
2023-03-03T06:24:59.886Z,101608.09
2023-03-03T06:27:26.436Z,101615.94
2023-03-03T06:29:53.456Z,101616.97
2023-03-03T06:32:19.845Z,101622.66
2023-03-03T06:34:46.703Z,101626.38
2023-03-03T06:37:13.107Z,101627.03
2023-03-03T06:39:40.043Z,101626.38
2023-03-03T06:42:06.427Z,101630.88
2023-03-03T06:44:32.827Z,101640.94
2023-03-03T06:46:59.318Z,101650.81
2023-03-03T06:49:25.667Z,101649.16
2023-03-03T06:51:52.069Z,101650.53
2023-03-03T06:54:19.165Z,101645.84
2023-03-03T06:56:45.422Z,101651.38
2023-03-03T06:59:11.986Z,101647.84
2023-03-03T07:01:38.391Z,101657.94
2023-03-03T07:04:04.815Z,101673.13
2023-03-03T07:06:31.271Z,101678.47
2023-03-03T07:08:58.153Z,101671.66
2023-03-03T07:11:24.582Z,101680.53
2023-03-03T07:13:51.779Z,101681.72
2023-03-03T07:16:18.589Z,101691.56
2023-03-03T07:18:45.006Z,101687.25
2023-03-03T07:21:11.323Z,101679.03
2023-03-03T07:23:37.783Z,101687.88
2023-03-03T07:26:04.254Z,101690.63
2023-03-03T07:28:30.635Z,101699.31
2023-03-03T07:30:57.386Z,101698.63
2023-03-03T07:33:23.744Z,101688.78
2023-03-03T07:35:50.144Z,101681.03
2023-03-03T07:38:16.529Z,101682.88
2023-03-03T07:40:43.052Z,101683.34
2023-03-03T07:43:09.426Z,101681.50
2023-03-03T07:45:36.027Z,101674.50
2023-03-03T07:48:02.489Z,101683.19
2023-03-03T07:50:28.906Z,101682.16
2023-03-03T07:52:55.314Z,101671.81
2023-03-03T07:55:21.672Z,101665.84
2023-03-03T07:57:48.108Z,101675.50
2023-03-03T08:00:14.853Z,101679.22
2023-03-03T08:02:41.301Z,101683.53
2023-03-03T08:05:08.259Z,101688.03
2023-03-03T08:07:35.033Z,101689.50
2023-03-03T08:10:01.412Z,101687.88
2023-03-03T08:12:28.098Z,101698.56
2023-03-03T08:14:54.455Z,101701.22
2023-03-03T08:17:20.904Z,101703.91
2023-03-03T08:19:47.493Z,101693.22
2023-03-03T08:22:13.962Z,101688.03
2023-03-03T08:24:40.420Z,101696.06
2023-03-03T08:27:07.130Z,101689.91
2023-03-03T08:29:33.443Z,101687.41
2023-03-03T08:32:00.101Z,101685.75
2023-03-03T08:34:26.725Z,101691.09
2023-03-03T08:36:53.068Z,101690.88
2023-03-03T08:39:19.764Z,101676.25
2023-03-03T08:41:46.323Z,101687.94
2023-03-03T08:44:13.041Z,101683.63
2023-03-03T08:46:39.433Z,101690.63
2023-03-03T08:49:05.944Z,101694.31
2023-03-03T08:51:32.307Z,101692.66
2023-03-03T08:53:58.671Z,101698.81
2023-03-03T08:56:25.312Z,101693.47
2023-03-03T08:59:02.288Z,101695.69
2023-03-03T09:01:29.141Z,101693.00
2023-03-03T09:03:55.600Z,101699.38
2023-03-03T09:06:21.984Z,101700.38
2023-03-03T09:08:48.518Z,101702.22
2023-03-03T09:11:15.188Z,101708.22
2023-03-03T09:13:41.919Z,101714.75
2023-03-03T09:16:08.616Z,101713.94
2023-03-03T09:18:35.780Z,101704.91
2023-03-03T09:21:02.217Z,101719.09
2023-03-03T09:23:28.589Z,101712.06
2023-03-03T09:25:55.113Z,101716.78
2023-03-03T09:28:21.505Z,101706.25
2023-03-03T09:30:48.035Z,101713.44
2023-03-03T09:33:14.480Z,101717.97
2023-03-03T09:35:41.396Z,101716.59
2023-03-03T09:38:08.028Z,101722.13
2023-03-03T09:40:34.660Z,101709.97
2023-03-03T09:43:01.206Z,101715.31
2023-03-03T09:45:27.939Z,101709.50
2023-03-03T09:47:54.640Z,101716.00
2023-03-03T09:50:21.803Z,101710.13
2023-03-03T09:52:48.192Z,101710.47
2023-03-03T09:55:14.626Z,101710.47
2023-03-03T09:57:41.183Z,101712.53
2023-03-03T10:00:07.890Z,101713.34
2023-03-03T10:02:34.349Z,101711.50
2023-03-03T10:05:01.534Z,101712.53
2023-03-03T10:07:28.287Z,101709.84
2023-03-03T10:09:55.496Z,101706.34
2023-03-03T10:12:21.897Z,101712.53
2023-03-03T10:14:48.498Z,101709.00
2023-03-03T10:17:14.856Z,101715.38
2023-03-03T10:19:41.266Z,101709.19
2023-03-03T10:22:07.655Z,101717.69
2023-03-03T10:24:34.042Z,101707.81
2023-03-03T10:27:13.164Z,101713.81
2023-03-03T10:29:40.733Z,101710.13
2023-03-03T10:32:07.168Z,101711.78
2023-03-03T10:34:33.675Z,101709.28
2023-03-03T10:37:00.095Z,101705.25
2023-03-03T10:39:27.169Z,101707.09
2023-03-03T10:41:53.508Z,101714.09
2023-03-03T10:44:19.917Z,101706.09
2023-03-03T10:46:46.723Z,101708.59
2023-03-03T10:49:13.456Z,101710.25
2023-03-03T10:51:40.104Z,101713.09
2023-03-03T10:54:06.536Z,101707.28
2023-03-03T10:56:40.302Z,101710.41
2023-03-03T10:59:17.114Z,101714.28
2023-03-03T11:01:43.542Z,101714.75
2023-03-03T11:04:10.036Z,101713.44
2023-03-03T11:06:37.506Z,101709.78
2023-03-03T11:09:04.324Z,101706.44
2023-03-03T11:11:30.732Z,101709.28
2023-03-03T11:13:57.777Z,101704.63
2023-03-03T11:16:24.272Z,101697.78
2023-03-03T11:18:50.675Z,101705.41
2023-03-03T11:21:17.575Z,101699.63
2023-03-03T11:23:44.089Z,101696.94
2023-03-03T11:26:10.824Z,101698.81
2023-03-03T11:28:37.850Z,101693.47
2023-03-03T11:31:04.777Z,101694.44
2023-03-03T11:33:31.284Z,101696.13
2023-03-03T11:35:57.705Z,101694.44
2023-03-03T11:38:24.131Z,101691.94
2023-03-03T11:40:50.939Z,101691.50
2023-03-03T11:43:30.062Z,101692.97
2023-03-03T11:46:02.062Z,101691.84
2023-03-03T11:48:28.559Z,101689.00
2023-03-03T11:50:55.110Z,101689.84
2023-03-03T11:53:21.928Z,101688.81
2023-03-03T11:55:48.323Z,101685.88
2023-03-03T11:58:14.734Z,101680.16
2023-03-03T12:00:41.126Z,101674.81
2023-03-03T12:03:07.580Z,101667.16
2023-03-03T12:05:34.171Z,101665.34
2023-03-03T12:08:00.986Z,101668.81
2023-03-03T12:10:27.300Z,101667.78
2023-03-03T12:12:53.608Z,101665.50
2023-03-03T12:15:20.170Z,101666.50
2023-03-03T12:17:49.469Z,101665.69
2023-03-03T12:20:16.845Z,101665.69
2023-03-03T12:22:43.337Z,101668.53
2023-03-03T12:25:09.953Z,101660.69
2023-03-03T12:27:36.361Z,101660.88
2023-03-03T12:30:05.157Z,101652.69
2023-03-03T12:32:31.975Z,101648.34
2023-03-03T12:34:58.368Z,101642.84
2023-03-03T12:37:25.449Z,101636.00
2023-03-03T12:39:52.317Z,101638.69
2023-03-03T12:42:18.714Z,101624.66
2023-03-03T12:44:45.188Z,101624.19
2023-03-03T12:47:11.578Z,101637.22
2023-03-03T12:49:44.126Z,101632.84
2023-03-03T12:52:11.564Z,101628.34
2023-03-03T12:54:37.970Z,101623.38
2023-03-03T12:57:04.500Z,101623.00
2023-03-03T12:59:30.920Z,101621.53
2023-03-03T13:01:57.382Z,101631.56
2023-03-03T13:04:23.914Z,101625.41
2023-03-03T13:06:50.958Z,101626.22
2023-03-03T13:09:17.788Z,101631.94
2023-03-03T13:11:44.123Z,101633.59
2023-03-03T13:14:10.614Z,101632.56
2023-03-03T13:16:41.612Z,101635.25
2023-03-03T13:19:08.322Z,101628.25
2023-03-03T13:21:35.388Z,101633.13
2023-03-03T13:24:01.722Z,101616.25
2023-03-03T13:26:30.363Z,101615.25
2023-03-03T13:28:58.080Z,101617.91
2023-03-03T13:31:24.902Z,101610.91
2023-03-03T13:33:52.082Z,101611.28
2023-03-03T13:36:18.589Z,101605.13
2023-03-03T13:38:45.075Z,101608.59
2023-03-03T13:41:11.490Z,101609.63
2023-03-03T13:43:38.079Z,101606.94
2023-03-03T13:46:04.502Z,101606.78
2023-03-03T13:48:31.243Z,101605.13
2023-03-03T13:50:57.646Z,101607.97
2023-03-03T13:53:24.429Z,101593.91
2023-03-03T13:55:50.803Z,101598.09
2023-03-03T13:58:17.170Z,101588.75
2023-03-03T14:00:44.177Z,101591.63
2023-03-03T14:03:10.807Z,101590.44
2023-03-03T14:05:37.161Z,101588.94
2023-03-03T14:08:03.589Z,101596.75
2023-03-03T14:10:30.008Z,101596.97
2023-03-03T14:12:56.406Z,101585.78
2023-03-03T14:15:22.775Z,101585.44
2023-03-03T14:17:49.240Z,101582.13
2023-03-03T14:20:15.644Z,101584.13
2023-03-03T14:22:42.054Z,101583.97
2023-03-03T14:25:08.533Z,101579.81
2023-03-03T14:27:35.638Z,101576.97
2023-03-03T14:30:02.443Z,101584.13
2023-03-03T14:32:44.448Z,101579.81
2023-03-03T14:35:11.484Z,101582.50
2023-03-03T14:37:38.069Z,101576.13
2023-03-03T14:40:04.444Z,101582.50
2023-03-03T14:42:31.529Z,101570.34
2023-03-03T14:44:58.487Z,101569.31
2023-03-03T14:47:25.050Z,101563.97
2023-03-03T14:49:51.589Z,101565.34
2023-03-03T14:52:18.032Z,101565.00
2023-03-03T14:54:44.806Z,101565.81
2023-03-03T14:57:11.265Z,101558.19
2023-03-03T14:59:37.688Z,101551.81
2023-03-03T15:02:04.119Z,101549.16
2023-03-03T15:04:31.209Z,101548.31
2023-03-03T15:06:57.733Z,101552.84
2023-03-03T15:09:24.106Z,101550.97
2023-03-03T15:11:50.516Z,101553.00
2023-03-03T15:14:16.999Z,101547.66
2023-03-03T15:16:43.452Z,101550.16
2023-03-03T15:19:09.800Z,101544.63
2023-03-03T15:21:36.203Z,101548.31
2023-03-03T15:24:02.634Z,101544.81
2023-03-03T15:26:29.519Z,101548.47
2023-03-03T15:28:56.348Z,101546.66
2023-03-03T15:31:22.784Z,101546.81
2023-03-03T15:33:49.505Z,101541.50
2023-03-03T15:36:15.974Z,101539.84
2023-03-03T15:38:42.331Z,101531.81
2023-03-03T15:41:08.746Z,101528.13
2023-03-03T15:43:35.612Z,101530.81
2023-03-03T15:46:02.329Z,101527.50
2023-03-03T15:48:29.249Z,101522.97
2023-03-03T15:50:56.070Z,101519.50
2023-03-03T15:53:22.438Z,101519.66
2023-03-03T15:55:49.591Z,101519.66
2023-03-03T15:58:16.865Z,101523.16
2023-03-03T16:00:43.291Z,101510.66
2023-03-03T16:03:09.696Z,101514.34
2023-03-03T16:05:36.082Z,101512.69
2023-03-03T16:08:02.533Z,101510.19
2023-03-03T16:10:29.370Z,101504.00
2023-03-03T16:12:55.753Z,101489.81
2023-03-03T16:15:22.700Z,101497.66
2023-03-03T16:17:49.235Z,101497.81
2023-03-03T16:20:15.551Z,101504.00
2023-03-03T16:22:42.016Z,101504.00
2023-03-03T16:25:08.432Z,101505.03
2023-03-03T16:27:35.270Z,101506.84
2023-03-03T16:30:01.683Z,101499.69
2023-03-03T16:32:28.056Z,101510.38
2023-03-03T16:34:55.201Z,101506.69
2023-03-03T16:37:21.621Z,101506.03
2023-03-03T16:39:47.956Z,101506.22
2023-03-03T16:42:14.262Z,101516.72
2023-03-03T16:44:40.639Z,101511.38
2023-03-03T16:47:07.026Z,101520.38
2023-03-03T16:49:33.766Z,101513.22
2023-03-03T16:52:00.150Z,101506.41
2023-03-03T16:54:26.575Z,101518.72
2023-03-03T16:56:53.027Z,101518.72
2023-03-03T16:59:19.464Z,101515.03
2023-03-03T17:01:45.871Z,101518.09
2023-03-03T17:04:15.234Z,101522.41
2023-03-03T17:06:41.776Z,101520.75
2023-03-03T17:09:08.194Z,101519.91
2023-03-03T17:11:34.592Z,101524.25
2023-03-03T17:14:01.275Z,101521.56
2023-03-03T17:16:27.733Z,101519.06
2023-03-03T17:18:54.074Z,101514.41
2023-03-03T17:21:20.617Z,101519.06
2023-03-03T17:23:47.225Z,101516.41
2023-03-03T17:26:13.909Z,101522.59
2023-03-03T17:28:40.516Z,101525.25
2023-03-03T17:31:07.120Z,101528.94
2023-03-03T17:33:33.532Z,101516.13
2023-03-03T17:36:00.425Z,101523.78
2023-03-03T17:38:27.585Z,101526.44
2023-03-03T17:40:54.852Z,101519.47
2023-03-03T17:43:21.899Z,101517.59
2023-03-03T17:45:48.519Z,101511.47
2023-03-03T17:48:15.004Z,101510.25
2023-03-03T17:50:41.388Z,101511.47
2023-03-03T17:53:08.325Z,101508.97
2023-03-03T17:55:34.706Z,101508.78
2023-03-03T17:58:01.479Z,101507.13
2023-03-03T18:00:27.978Z,101499.13
2023-03-03T18:02:54.405Z,101498.09
2023-03-03T18:05:21.069Z,101506.13
2023-03-03T18:07:47.514Z,101493.13
2023-03-03T18:10:13.954Z,101493.13
2023-03-03T18:12:40.424Z,101491.47
2023-03-03T18:15:07.514Z,101493.13
2023-03-03T18:17:34.337Z,101487.78
2023-03-03T18:20:00.744Z,101480.78
2023-03-03T18:22:28.004Z,101486.13
2023-03-03T18:24:54.378Z,101482.44
2023-03-03T18:27:21.368Z,101483.63
2023-03-03T18:29:47.869Z,101479.94
2023-03-03T18:32:14.301Z,101477.47
2023-03-03T18:34:40.712Z,101475.63
2023-03-03T18:37:08.017Z,101478.31
2023-03-03T18:39:34.858Z,101476.66
2023-03-03T18:42:01.874Z,101474.78
2023-03-03T18:44:28.253Z,101473.31
2023-03-03T18:46:54.717Z,101467.97
2023-03-03T18:49:21.720Z,101466.31
2023-03-03T18:51:48.348Z,101465.31
2023-03-03T18:54:14.731Z,101459.34
2023-03-03T18:56:41.138Z,101455.81
2023-03-03T18:59:07.843Z,101451.34
2023-03-03T19:01:34.247Z,101456.50
2023-03-03T19:04:00.677Z,101453.16
2023-03-03T19:06:27.796Z,101460.34
2023-03-03T19:08:54.756Z,101456.84
2023-03-03T19:11:21.650Z,101461.34
2023-03-03T19:13:48.034Z,101457.47
2023-03-03T19:16:14.844Z,101455.19
2023-03-03T19:18:41.329Z,101457.69
2023-03-03T19:21:08.018Z,101461.53
2023-03-03T19:23:34.838Z,101457.19
2023-03-03T19:26:01.637Z,101460.53
2023-03-03T19:28:28.135Z,101455.19
2023-03-03T19:30:54.667Z,101462.53
2023-03-03T19:33:21.312Z,101457.19
2023-03-03T19:35:48.260Z,101455.19
2023-03-03T19:38:14.730Z,101463.38
2023-03-03T19:40:41.140Z,101458.84
2023-03-03T19:43:08.345Z,101457.38
2023-03-03T19:45:34.941Z,101462.72
2023-03-03T19:48:01.384Z,101453.22
2023-03-03T19:50:28.284Z,101455.91
2023-03-03T19:52:55.139Z,101453.22
2023-03-03T19:55:21.911Z,101455.91
2023-03-03T19:57:49.048Z,101457.56
2023-03-03T20:00:15.339Z,101452.22
2023-03-03T20:02:41.740Z,101440.06
2023-03-03T20:05:08.347Z,101441.09
2023-03-03T20:07:34.933Z,101438.25
2023-03-03T20:10:01.348Z,101433.06
2023-03-03T20:12:28.767Z,101429.41
2023-03-03T20:14:55.393Z,101432.91
2023-03-03T20:17:22.082Z,101428.59
2023-03-03T20:19:48.712Z,101422.41
2023-03-03T20:22:15.408Z,101426.72
2023-03-03T20:24:41.820Z,101417.06
2023-03-03T20:27:08.186Z,101416.25
2023-03-03T20:29:34.658Z,101413.38
2023-03-03T20:32:01.696Z,101411.72
2023-03-03T20:34:28.351Z,101411.09
2023-03-03T20:36:55.348Z,101411.91
2023-03-03T20:39:21.694Z,101411.91
2023-03-03T20:41:48.244Z,101409.41
2023-03-03T20:44:14.698Z,101404.09
2023-03-03T20:46:41.022Z,101409.41
2023-03-03T20:49:07.380Z,101400.78
2023-03-03T20:51:34.078Z,101403.28
2023-03-03T20:54:00.426Z,101400.59
2023-03-03T20:56:27.906Z,101396.47
2023-03-03T20:58:55.386Z,101392.78
2023-03-03T21:01:22.168Z,101389.09
2023-03-03T21:03:48.706Z,101389.28
2023-03-03T21:06:15.284Z,101396.28
2023-03-03T21:08:41.702Z,101396.66
2023-03-03T21:11:08.194Z,101389.28
2023-03-03T21:13:34.669Z,101392.78
2023-03-03T21:16:01.183Z,101392.31
2023-03-03T21:18:28.178Z,101391.31
2023-03-03T21:20:54.497Z,101380.63
2023-03-03T21:23:21.328Z,101384.16
2023-03-03T21:25:48.275Z,101383.31
2023-03-03T21:28:15.517Z,101384.31
2023-03-03T21:30:42.399Z,101383.47
2023-03-03T21:33:09.112Z,101378.97
2023-03-03T21:35:35.469Z,101381.66
2023-03-03T21:38:01.849Z,101379.97
2023-03-03T21:40:28.225Z,101382.84
2023-03-03T21:42:54.820Z,101382.63
2023-03-03T21:45:21.553Z,101375.31
2023-03-03T21:47:48.101Z,101372.81
2023-03-03T21:50:14.451Z,101368.66
2023-03-03T21:52:40.787Z,101371.34
2023-03-03T21:55:07.217Z,101369.69
2023-03-03T21:57:33.735Z,101366.19
2023-03-03T22:00:00.085Z,101363.50
2023-03-03T22:02:27.233Z,101358.19
2023-03-03T22:04:53.893Z,101360.00
2023-03-03T22:07:20.710Z,101357.34
2023-03-03T22:09:47.218Z,101353.03
2023-03-03T22:12:13.594Z,101348.34
2023-03-03T22:14:40.019Z,101344.00
2023-03-03T22:17:06.451Z,101344.66
2023-03-03T22:19:32.761Z,101332.50
2023-03-03T22:21:59.740Z,101330.88
2023-03-03T22:24:26.139Z,101331.69
2023-03-03T22:26:52.486Z,101326.34
2023-03-03T22:29:19.476Z,101330.88
2023-03-03T22:31:45.973Z,101329.19
2023-03-03T22:34:12.599Z,101328.38
2023-03-03T22:36:38.918Z,101326.72
2023-03-03T22:39:05.245Z,101329.41
2023-03-03T22:41:31.659Z,101311.34
2023-03-03T22:43:58.302Z,101308.88
2023-03-03T22:46:24.679Z,101308.88
2023-03-03T22:48:51.067Z,101302.91
2023-03-03T22:51:17.344Z,101297.56
2023-03-03T22:53:43.885Z,101295.72
2023-03-03T22:56:10.598Z,101295.72
2023-03-03T22:58:37.647Z,101280.72
2023-03-03T23:01:03.995Z,101292.22
2023-03-03T23:03:30.898Z,101280.72
2023-03-03T23:05:57.268Z,101271.69
2023-03-03T23:08:23.714Z,101273.75
2023-03-03T23:10:50.067Z,101264.91
2023-03-03T23:13:16.520Z,101276.41
2023-03-03T23:15:42.976Z,101268.41
2023-03-03T23:18:09.742Z,101259.75
2023-03-03T23:20:36.067Z,101262.22
2023-03-03T23:23:02.556Z,101261.41
2023-03-03T23:25:28.922Z,101264.91
2023-03-03T23:27:55.380Z,101257.06
2023-03-03T23:30:21.787Z,101268.41
2023-03-03T23:32:48.214Z,101243.75
2023-03-03T23:35:14.614Z,101245.59
2023-03-03T23:37:40.957Z,101240.09
2023-03-03T23:40:07.252Z,101240.44
2023-03-03T23:42:33.773Z,101232.25
2023-03-03T23:45:00.122Z,101224.44
2023-03-03T23:47:26.855Z,101210.25
2023-03-03T23:49:53.134Z,101215.59
2023-03-03T23:52:19.487Z,101207.59
2023-03-03T23:54:46.077Z,101209.47
2023-03-03T23:57:12.413Z,101200.63
2023-03-03T23:59:38.930Z,101208.44
